Rechercher aéroport 
image banner adimage banner adimage banner ad
image banner ad

M45 - Alpine County

Situé à Markleeville, United States

ICAO - M45, IATA -

Données fournies par Airmate  

Information générale

Coordonnées: N38°44'5" W119°46'1"
Élévation : 5872 feet MSL.
Variation magnétique : 16° East
Voir autres Aéroports à California

Données opérationnelles

Special qualification required
Heure actuelle UTC:
Heure actuelle locale:
Météo à : KTVL - Lake Tahoe ( 27 km )
METAR: KTVL 251253Z AUTO 00000KT 10SM CLR 11/04 A3026 RMK AO2 SLP178 T01110044
TAF: KTVL 251120Z 2512/2612 18003KT P6SM SCT200 FM251600 03006KT 5SM FU HZ BKN035 FM252300 19007KT P6SM SCT090 SCT200 FM260400 VRB03KT P6SM SCT100 BKN200
Voir NOTAMs / SUP AIP / TFR affectant cet aéroport [VIEW]
Fréquences de communication: [VIEW]

Pistes:

Identifiant RWYQFULongueur (ft)Largeur (ft)SurfaceLDA (ft)
17184°444350ASPH
35444350ASPH

Coordonnées de l'aéroport

Adresse: Markleeville United States

Vue satellite de M45